Time;durP1;ratioP1;P1;durP2;ratioP2;P2;SDS_P1;SDS_P2;PMS_P1;PMS_P2;Temp;Humidity;BMP_temperature;BMP_pressure;BME280_temperature;BME280_humidity;BME280_pressure;Samples;Min_cycle;Max_cycle;Signal;HPM_P1;HPM_P2
2022/06/21 00:00:20;;;;;;;2.17;0.90;;;22.30;48.80;;;;;;5053364;28;20043;-63
2022/06/21 00:02:48;;;;;;;2.30;0.85;;;22.40;48.80;;;;;;5053536;28;20506;-63
2022/06/21 00:05:28;;;;;;;1.80;0.95;;;22.30;48.80;;;;;;5053112;28;20122;-64
2022/06/21 00:07:56;;;;;;;1.25;0.60;;;22.30;48.80;;;;;;5054869;28;20377;-64
2022/06/21 00:10:22;;;;;;;1.48;0.80;;;22.30;48.80;;;;;;5054184;28;20512;-64
2022/06/21 00:12:48;;;;;;;1.38;0.75;;;22.30;48.80;;;;;;5052550;28;20431;-64
2022/06/21 00:15:14;;;;;;;1.95;0.70;;;22.30;48.80;;;;;;5052336;28;20062;-63
2022/06/21 00:17:44;;;;;;;1.65;0.85;;;22.30;48.80;;;;;;5051578;28;20044;-64
2022/06/21 00:20:18;;;;;;;1.15;0.68;;;22.30;48.80;;;;;;5049795;28;20640;-64
2022/06/21 00:22:44;;;;;;;1.95;0.95;;;22.30;48.80;;;;;;5053254;28;20035;-63
2022/06/21 00:25:39;;;;;;;1.45;0.70;;;22.30;48.80;;;;;;5050577;28;20045;-63
2022/06/21 00:28:05;;;;;;;1.80;0.80;;;22.30;48.80;;;;;;5036857;28;20492;-63
2022/06/21 00:30:31;;;;;;;1.30;0.68;;;22.30;48.90;;;;;;5054504;28;20098;-64
2022/06/21 00:32:57;;;;;;;0.90;0.63;;;22.30;48.80;;;;;;5053513;28;20053;-63
2022/06/21 00:35:24;;;;;;;0.90;0.80;;;22.30;48.90;;;;;;5035750;28;20067;-63
2022/06/21 00:37:52;;;;;;;2.10;0.82;;;22.30;48.80;;;;;;5050363;28;20033;-63
2022/06/21 00:40:25;;;;;;;1.50;0.65;;;22.30;48.80;;;;;;5055104;28;20043;-63
2022/06/21 00:43:06;;;;;;;1.60;0.73;;;22.30;48.90;;;;;;5052989;28;20055;-63
2022/06/21 00:45:36;;;;;;;2.28;0.80;;;22.30;48.80;;;;;;5053329;28;20056;-64
2022/06/21 00:48:12;;;;;;;2.25;0.77;;;22.30;48.80;;;;;;5052842;28;20033;-64
2022/06/21 00:50:44;;;;;;;2.30;0.95;;;22.30;48.80;;;;;;5054414;28;20037;-63
2022/06/21 00:53:23;;;;;;;2.55;0.80;;;22.30;48.90;;;;;;5055679;28;20051;-63
2022/06/21 00:55:57;;;;;;;0.70;0.60;;;22.30;48.80;;;;;;5055585;28;20082;-63
2022/06/21 00:58:27;;;;;;;1.20;0.60;;;22.30;48.90;;;;;;5036508;28;20481;-64
2022/06/21 01:01:18;;;;;;;3.60;0.68;;;22.30;48.90;;;;;;5054399;28;20032;-63
2022/06/21 01:03:46;;;;;;;;;;;22.30;48.90;;;;;;5038682;28;20032;-63
2022/06/21 01:06:18;;;;;;;1.52;0.70;;;22.20;48.80;;;;;;5058950;28;19920;-63
2022/06/21 01:08:49;;;;;;;1.67;0.80;;;22.20;48.90;;;;;;5058218;28;20103;-63
2022/06/21 01:11:21;;;;;;;1.48;0.70;;;22.20;48.90;;;;;;5054909;28;20037;-63
2022/06/21 01:13:50;;;;;;;1.98;0.75;;;22.20;48.80;;;;;;5056212;28;20538;-63
2022/06/21 01:16:16;;;;;;;2.47;0.95;;;22.20;48.80;;;;;;5051999;28;20519;-63
2022/06/21 01:18:42;;;;;;;1.45;0.52;;;22.20;48.80;;;;;;5054795;28;20040;-63
2022/06/21 01:21:10;;;;;;;2.50;0.70;;;22.20;48.80;;;;;;5057851;28;20047;-63
2022/06/21 01:23:54;;;;;;;1.88;0.63;;;22.20;48.80;;;;;;5057231;28;20051;-63
2022/06/21 01:26:32;;;;;;;1.20;0.70;;;22.20;48.70;;;;;;5054745;28;20075;-64
2022/06/21 01:32:38;;;;;;;1.42;0.63;;;22.20;48.70;;;;;;5055029;28;20048;-63
2022/06/21 01:35:25;;;;;;;2.25;0.57;;;22.20;48.70;;;;;;5038369;28;20037;-64
2022/06/21 01:37:52;;;;;;;1.85;0.65;;;22.20;48.80;;;;;;5055411;28;20065;-63
2022/06/21 01:40:25;;;;;;;1.35;0.90;;;22.20;48.80;;;;;;5056868;28;20147;-63
2022/06/21 01:42:54;;;;;;;1.10;0.82;;;22.20;48.80;;;;;;5056364;28;20072;-63
2022/06/21 01:45:28;;;;;;;1.08;0.60;;;22.20;48.80;;;;;;5057390;28;20127;-63
2022/06/21 01:48:14;;;;;;;2.70;0.93;;;22.20;48.80;;;;;;5056724;28;20191;-63
2022/06/21 01:50:42;;;;;;;1.10;0.70;;;22.20;48.80;;;;;;5057356;28;20063;-63
2022/06/21 01:53:09;;;;;;;1.45;0.88;;;22.20;48.80;;;;;;5054478;28;20044;-63
2022/06/21 01:55:38;;;;;;;0.75;0.70;;;22.20;48.80;;;;;;5045055;28;20044;-64
2022/06/21 01:58:08;;;;;;;1.40;0.55;;;22.20;48.80;;;;;;5038843;28;20045;-63
2022/06/21 02:00:38;;;;;;;3.95;0.90;;;22.20;48.80;;;;;;5053939;28;20040;-63
2022/06/21 02:03:12;;;;;;;2.05;0.77;;;22.20;48.80;;;;;;5056913;28;20064;-63
2022/06/21 02:05:41;;;;;;;0.95;0.63;;;22.20;48.80;;;;;;5056215;28;20124;-63
2022/06/21 02:08:13;;;;;;;2.38;0.90;;;22.20;48.80;;;;;;5054590;28;20045;-63
2022/06/21 02:10:53;;;;;;;1.38;0.65;;;22.20;48.80;;;;;;5054907;28;20150;-64
2022/06/21 02:13:30;;;;;;;3.13;0.80;;;22.20;48.70;;;;;;5036263;28;20397;-63
2022/06/21 02:16:03;;;;;;;1.48;0.93;;;22.20;48.70;;;;;;5052919;28;20071;-63
2022/06/21 02:18:32;;;;;;;1.40;0.75;;;22.20;48.80;;;;;;5055694;28;20040;-63
2022/06/21 02:21:07;;;;;;;1.23;0.70;;;22.20;48.70;;;;;;5053484;28;20103;-63
2022/06/21 02:23:32;;;;;;;2.08;1.00;;;22.20;48.70;;;;;;5055073;28;20063;-63
2022/06/21 02:25:58;;;;;;;2.45;0.70;;;22.10;48.60;;;;;;5056454;28;20045;-63
2022/06/21 02:28:28;;;;;;;1.45;0.77;;;22.20;48.70;;;;;;5055421;28;20033;-63
2022/06/21 02:30:56;;;;;;;1.58;0.60;;;22.10;48.60;;;;;;5054341;28;20036;-63
2022/06/21 02:33:29;;;;;;;1.60;0.82;;;22.10;48.60;;;;;;5055801;28;20488;-63
2022/06/21 02:35:59;;;;;;;1.92;0.80;;;22.20;48.60;;;;;;5053391;28;20509;-63
2022/06/21 02:38:56;;;;;;;1.27;0.60;;;22.20;48.60;;;;;;5038745;28;20045;-63
2022/06/21 02:41:37;;;;;;;1.55;0.73;;;22.20;48.60;;;;;;5056164;28;20036;-64
2022/06/21 02:44:10;;;;;;;1.90;0.77;;;22.10;48.50;;;;;;5054683;28;20370;-63
2022/06/21 02:46:41;;;;;;;1.23;0.60;;;22.10;48.50;;;;;;5055310;28;20024;-63
2022/06/21 02:49:10;;;;;;;1.35;0.60;;;22.10;48.50;;;;;;5055260;28;20904;-63
2022/06/21 02:51:40;;;;;;;0.88;0.70;;;22.10;49.20;;;;;;5054503;28;20094;-63
2022/06/21 02:54:11;;;;;;;1.05;0.60;;;22.10;48.50;;;;;;5043548;28;20060;-63
2022/06/21 02:56:46;;;;;;;0.70;0.70;;;22.10;48.50;;;;;;5054921;28;20141;-63
2022/06/21 02:59:13;;;;;;;1.40;0.75;;;22.10;48.40;;;;;;5057441;28;20036;-64
2022/06/21 03:01:48;;;;;;;1.73;0.68;;;22.10;48.50;;;;;;5054542;28;20384;-64
2022/06/21 03:04:50;;;;;;;1.02;0.68;;;22.10;48.40;;;;;;5053354;28;20135;-63
2022/06/21 03:07:25;;;;;;;0.77;0.77;;;22.10;48.30;;;;;;5040033;28;20063;-64
2022/06/21 03:09:53;;;;;;;1.00;0.70;;;22.10;48.40;;;;;;5037934;28;20041;-63
2022/06/21 03:12:25;;;;;;;1.30;0.68;;;22.10;48.40;;;;;;5053843;28;20045;-64
2022/06/21 03:14:56;;;;;;;0.73;0.70;;;22.10;48.30;;;;;;5053916;28;20035;-63
2022/06/21 03:17:44;;;;;;;1.00;0.60;;;22.10;48.30;;;;;;5053777;28;20127;-63
2022/06/21 03:20:14;;;;;;;1.60;0.82;;;22.10;48.30;;;;;;5053035;28;20067;-63
2022/06/21 03:22:41;;;;;;;2.63;1.00;;;22.10;48.40;;;;;;5054337;28;20846;-62
2022/06/21 03:25:17;;;;;;;1.38;0.60;;;22.10;48.30;;;;;;5054238;28;20055;-63
2022/06/21 03:27:53;;;;;;;1.38;0.55;;;22.10;48.30;;;;;;5054916;28;20049;-63
2022/06/21 03:30:21;;;;;;;1.85;0.80;;;22.10;48.30;;;;;;5055141;28;20064;-63
2022/06/21 03:32:49;;;;;;;1.25;0.60;;;22.10;48.30;;;;;;5055388;28;20037;-63
2022/06/21 03:35:15;;;;;;;2.47;0.93;;;22.10;48.30;;;;;;5056188;28;20059;-63
2022/06/21 03:37:43;;;;;;;1.55;0.70;;;22.10;48.30;;;;;;5052551;28;20040;-63
2022/06/21 03:43:18;;;;;;;1.85;0.80;;;22.10;48.20;;;;;;5054333;28;20164;-63
2022/06/21 03:45:47;;;;;;;1.88;0.88;;;22.10;48.20;;;;;;5052007;28;20045;-63
2022/06/21 03:48:26;;;;;;;1.95;0.85;;;22.10;48.20;;;;;;5056129;28;20033;-63
2022/06/21 03:51:06;;;;;;;1.63;0.85;;;22.10;48.20;;;;;;5055746;28;20036;-63
2022/06/21 03:53:46;;;;;;;1.63;0.70;;;22.00;48.20;;;;;;5052483;28;20087;-63
2022/06/21 03:56:32;;;;;;;2.40;1.15;;;22.10;48.20;;;;;;5055432;28;20064;-63
2022/06/21 03:59:20;;;;;;;1.90;0.65;;;22.00;48.20;;;;;;5039614;28;20051;-63
2022/06/21 04:02:17;;;;;;;1.13;0.70;;;22.00;48.10;;;;;;5053557;28;20041;-63
2022/06/21 04:04:55;;;;;;;1.85;0.80;;;22.00;48.10;;;;;;5053939;28;20032;-63
2022/06/21 04:07:31;;;;;;;1.08;0.75;;;22.00;48.20;;;;;;5054805;28;20552;-62
2022/06/21 04:10:08;;;;;;;1.45;0.80;;;22.00;48.10;;;;;;5053422;28;20040;-63
2022/06/21 04:12:47;;;;;;;0.68;0.68;;;22.00;48.20;;;;;;5050558;28;20056;-63
2022/06/21 04:15:37;;;;;;;2.45;1.00;;;22.00;48.20;;;;;;5052520;28;20032;-63
2022/06/21 04:18:16;;;;;;;1.13;0.70;;;22.00;48.20;;;;;;5052770;28;20049;-63
2022/06/21 04:20:45;;;;;;;2.10;0.55;;;22.00;48.20;;;;;;5054566;28;20423;-63
2022/06/21 04:23:17;;;;;;;0.75;0.57;;;22.00;48.20;;;;;;5052407;28;20111;-63
2022/06/21 04:25:56;;;;;;;1.38;0.75;;;22.00;48.20;;;;;;5052170;28;20040;-63
2022/06/21 04:28:33;;;;;;;1.13;0.60;;;22.00;48.20;;;;;;5053191;28;20128;-63
2022/06/21 04:31:11;;;;;;;0.95;0.60;;;22.00;48.20;;;;;;5052850;28;20048;-63
2022/06/21 04:34:13;;;;;;;1.65;1.02;;;22.00;48.20;;;;;;5053622;28;20288;-63
2022/06/21 04:36:54;;;;;;;1.23;0.68;;;22.00;48.30;;;;;;5030893;28;20456;-63
2022/06/21 04:39:52;;;;;;;1.15;0.90;;;22.00;48.30;;;;;;5057837;28;20033;-63
2022/06/21 04:42:31;;;;;;;1.25;0.70;;;22.00;48.30;;;;;;5056416;28;20049;-62
2022/06/21 04:45:13;;;;;;;1.30;0.70;;;22.00;48.40;;;;;;5058486;28;20511;-63
2022/06/21 04:48:01;;;;;;;1.35;0.60;;;22.00;48.40;;;;;;5056860;28;20041;-63
2022/06/21 04:50:55;;;;;;;1.80;0.65;;;22.00;48.40;;;;;;5057019;28;20046;-63
2022/06/21 04:53:36;;;;;;;1.23;0.88;;;22.00;48.40;;;;;;5053183;28;20079;-62
2022/06/21 04:56:16;;;;;;;0.80;0.70;;;22.00;48.50;;;;;;5056178;28;20126;-63
2022/06/21 04:58:50;;;;;;;1.23;0.70;;;22.00;48.50;;;;;;5041795;28;20052;-63
2022/06/21 05:01:34;;;;;;;0.70;0.60;;;22.00;48.50;;;;;;5055815;28;20086;-63
2022/06/21 05:04:22;;;;;;;2.42;0.88;;;22.00;48.50;;;;;;5057444;28;20143;-63
2022/06/21 05:06:49;;;;;;;0.90;0.80;;;22.00;48.50;;;;;;5056288;28;20049;-63
2022/06/21 05:09:19;;;;;;;1.00;0.60;;;21.90;48.50;;;;;;5056008;28;20463;-63
2022/06/21 05:11:45;;;;;;;2.25;0.80;;;22.00;48.60;;;;;;5056676;28;20037;-63
2022/06/21 05:14:29;;;;;;;1.90;0.70;;;21.90;48.50;;;;;;5056317;28;20033;-63
2022/06/21 05:16:55;;;;;;;1.70;0.80;;;22.00;48.60;;;;;;5059069;28;20443;-63
2022/06/21 05:19:36;;;;;;;1.40;0.88;;;22.00;48.70;;;;;;5058198;28;20534;-63
2022/06/21 05:22:30;;;;;;;2.08;0.80;;;22.00;49.40;;;;;;5056547;28;20920;-63
2022/06/21 05:24:58;;;;;;;1.00;0.80;;;22.00;48.70;;;;;;5048017;28;20874;-63
2022/06/21 05:27:44;;;;;;;1.17;0.70;;;22.00;48.80;;;;;;5056697;28;20041;-63
2022/06/21 05:30:20;;;;;;;1.50;0.70;;;21.90;48.70;;;;;;5058193;28;20043;-63
2022/06/21 05:32:50;;;;;;;1.45;0.60;;;22.00;48.90;;;;;;5056834;28;20037;-63
2022/06/21 05:35:22;;;;;;;1.30;0.80;;;22.00;48.90;;;;;;5058574;28;20041;-63
2022/06/21 05:38:02;;;;;;;2.70;1.00;;;22.00;48.90;;;;;;5055341;28;20037;-63
2022/06/21 05:40:53;;;;;;;0.80;0.73;;;22.00;49.00;;;;;;5056649;28;20721;-63
2022/06/21 05:43:20;;;;;;;;;;;22.00;49.00;;;;;;5056967;28;20044;-63
2022/06/21 05:45:53;;;;;;;1.88;0.80;;;21.90;49.00;;;;;;5055636;28;19946;-63
2022/06/21 05:48:23;;;;;;;1.85;0.73;;;22.00;49.10;;;;;;5055654;28;20055;-63
2022/06/21 05:50:50;;;;;;;3.13;0.80;;;22.00;49.10;;;;;;5054941;28;20059;-63
2022/06/21 05:53:28;;;;;;;0.88;0.73;;;22.00;49.20;;;;;;5055686;28;20048;-63
2022/06/21 05:55:56;;;;;;;1.38;0.68;;;22.00;49.20;;;;;;5056811;28;20037;-63
2022/06/21 05:58:35;;;;;;;1.83;0.90;;;21.90;49.10;;;;;;5054861;28;20032;-63
2022/06/21 06:01:12;;;;;;;2.33;0.85;;;22.00;49.20;;;;;;5057791;28;20036;-63
2022/06/21 06:04:04;;;;;;;0.77;0.52;;;22.00;49.30;;;;;;5056998;28;20499;-63
2022/06/21 06:06:35;;;;;;;2.00;0.65;;;22.00;49.30;;;;;;5055986;28;20077;-63
2022/06/21 06:09:07;;;;;;;2.22;0.90;;;22.00;49.40;;;;;;5055074;28;20408;-63
2022/06/21 06:12:03;;;;;;;2.08;0.60;;;22.00;49.40;;;;;;5054770;28;20068;-63
2022/06/21 06:14:43;;;;;;;3.47;0.93;;;22.00;49.50;;;;;;5056967;28;20032;-63
2022/06/21 06:17:25;;;;;;;0.83;0.60;;;22.00;49.60;;;;;;5056447;28;20067;-63
2022/06/21 06:20:01;;;;;;;1.88;0.98;;;22.00;49.70;;;;;;5054962;28;20110;-65
2022/06/21 06:22:35;;;;;;;2.20;0.88;;;22.00;49.80;;;;;;5054825;28;20059;-64
2022/06/21 06:25:23;;;;;;;1.45;0.98;;;22.00;49.90;;;;;;5035055;28;20091;-64
2022/06/21 06:28:14;;;;;;;0.95;0.60;;;22.00;50.00;;;;;;5054034;28;20110;-63
2022/06/21 06:30:58;;;;;;;;;;;22.00;50.00;;;;;;5054527;28;20044;-60
2022/06/21 06:33:36;;;;;;;0.77;0.60;;;22.00;50.10;;;;;;5055992;28;19932;-60
2022/06/21 06:36:06;;;;;;;1.65;0.82;;;22.00;50.10;;;;;;5053823;28;20033;-61
2022/06/21 06:38:32;;;;;;;3.95;1.05;;;22.00;50.20;;;;;;5052690;28;20036;-60
2022/06/21 06:41:21;;;;;;;4.05;1.10;;;22.00;50.20;;;;;;5053417;28;20135;-62
2022/06/21 06:44:00;;;;;;;2.83;1.00;;;22.00;51.40;;;;;;5051551;28;20036;-61
2022/06/21 06:46:36;;;;;;;2.78;0.98;;;22.00;50.90;;;;;;5054446;28;20462;-62
2022/06/21 06:49:19;;;;;;;3.53;1.15;;;22.00;50.70;;;;;;5054468;28;20036;-61
2022/06/21 06:51:51;;;;;;;3.78;1.30;;;22.00;50.90;;;;;;5056487;28;20049;-62
2022/06/21 06:54:30;;;;;;;2.95;1.10;;;22.00;51.00;;;;;;5055479;28;20033;-61
2022/06/21 06:57:15;;;;;;;6.63;1.23;;;22.00;51.20;;;;;;5057489;28;20036;-61
2022/06/21 06:59:43;;;;;;;3.28;1.15;;;22.00;51.20;;;;;;5056016;28;20048;-61
2022/06/21 07:02:38;;;;;;;2.92;1.13;;;22.00;51.20;;;;;;5054022;28;20083;-61
2022/06/21 07:05:09;;;;;;;3.80;1.00;;;22.00;51.20;;;;;;5052808;28;20053;-63
2022/06/21 07:07:46;;;;;;;5.40;1.25;;;22.00;51.10;;;;;;5055862;28;20044;-60
2022/06/21 07:10:18;;;;;;;3.72;1.30;;;22.00;51.20;;;;;;5054287;28;20051;-60
2022/06/21 07:12:44;;;;;;;4.45;1.02;;;22.00;51.00;;;;;;5056017;28;20045;-63
2022/06/21 07:15:12;;;;;;;4.82;1.20;;;22.00;50.60;;;;;;5052585;28;20046;-61
2022/06/21 07:17:51;;;;;;;5.28;1.50;;;22.00;50.60;;;;;;5055332;28;20040;-62
2022/06/21 07:20:21;;;;;;;5.95;1.42;;;22.00;50.60;;;;;;5051689;28;20031;-61
2022/06/21 07:22:47;;;;;;;5.30;1.40;;;22.00;50.30;;;;;;5054905;28;20041;-63
2022/06/21 07:25:36;;;;;;;6.82;1.42;;;22.00;50.20;;;;;;5051948;28;20044;-63
2022/06/21 07:28:23;;;;;;;5.03;1.40;;;22.00;50.20;;;;;;5053021;28;20050;-59
2022/06/21 07:30:52;;;;;;;3.30;1.17;;;21.90;50.30;;;;;;5051513;28;20120;-62
2022/06/21 07:33:34;;;;;;;10.60;1.23;;;22.00;50.50;;;;;;5053585;28;20033;-65
2022/06/21 07:36:08;;;;;;;4.50;1.20;;;22.00;50.80;;;;;;5052344;28;20048;-64
2022/06/21 07:38:47;;;;;;;3.90;1.42;;;22.00;50.90;;;;;;5055150;28;20045;-63
2022/06/21 07:41:21;;;;;;;6.32;1.58;;;22.00;50.80;;;;;;5055469;28;20048;-66
2022/06/21 07:43:50;;;;;;;3.45;1.00;;;22.00;50.60;;;;;;5053667;28;20047;-62
2022/06/21 07:46:42;;;;;;;4.53;1.10;;;22.00;50.60;;;;;;5053582;28;20036;-61
2022/06/21 07:49:25;;;;;;;2.92;1.13;;;22.00;50.70;;;;;;5049944;28;20044;-62
2022/06/21 07:51:57;;;;;;;6.78;1.52;;;22.00;50.70;;;;;;5052155;28;20041;-61
2022/06/21 07:54:39;;;;;;;3.33;0.98;;;22.00;50.70;;;;;;5049295;28;20048;-62
2022/06/21 07:57:11;;;;;;;7.25;1.45;;;22.00;50.60;;;;;;5051735;28;20425;-63
2022/06/21 07:59:43;;;;;;;6.63;1.52;;;22.00;50.80;;;;;;5050766;28;20044;-64
2022/06/21 08:07:51;;;;;;;3.97;1.48;;;22.00;51.60;;;;;;5053643;28;20049;-64
2022/06/21 08:10:32;;;;;;;3.72;1.40;;;22.00;51.60;;;;;;5053226;28;20090;-64
2022/06/21 08:12:57;;;;;;;2.58;1.15;;;22.00;51.80;;;;;;5053635;28;20700;-63
2022/06/21 08:15:37;;;;;;;5.43;1.65;;;22.00;51.90;;;;;;5057436;28;20034;-64
2022/06/21 08:18:44;;;;;;;2.92;1.15;;;22.00;51.90;;;;;;5057437;28;20040;-63
2022/06/21 08:21:16;;;;;;;5.25;1.00;;;22.00;52.10;;;;;;5037834;28;20127;-63
2022/06/21 08:24:02;;;;;;;4.88;0.95;;;22.00;52.10;;;;;;5040073;28;20118;-63
2022/06/21 08:26:39;;;;;;;3.03;1.33;;;22.00;52.40;;;;;;5056577;28;20848;-62
2022/06/21 08:29:20;;;;;;;3.22;1.17;;;22.00;52.50;;;;;;5041807;28;20032;-63
2022/06/21 08:31:53;;;;;;;2.85;0.95;;;22.00;52.50;;;;;;5057543;28;20072;-63
2022/06/21 08:34:38;;;;;;;2.28;1.17;;;22.00;52.50;;;;;;5056649;28;20478;-64
2022/06/21 08:37:20;;;;;;;2.40;1.30;;;22.00;52.50;;;;;;5041066;28;20040;-64
2022/06/21 08:40:09;;;;;;;3.90;1.13;;;22.00;52.40;;;;;;5057851;28;20369;-63
2022/06/21 08:43:05;;;;;;;2.33;1.27;;;22.00;52.30;;;;;;5057396;28;20037;-64
2022/06/21 08:45:43;;;;;;;7.43;1.30;;;22.00;52.10;;;;;;5057458;28;20439;-64
2022/06/21 08:48:26;;;;;;;2.30;1.30;;;22.00;52.30;;;;;;5058836;28;20082;-63
2022/06/21 08:51:12;;;;;;;4.15;1.35;;;22.00;52.40;;;;;;5029532;28;20103;-64
2022/06/21 08:53:53;;;;;;;1.60;1.00;;;22.00;52.40;;;;;;5058638;28;20083;-64
2022/06/21 08:56:42;;;;;;;2.88;1.10;;;22.00;52.40;;;;;;5040571;28;20036;-64
2022/06/21 08:59:31;;;;;;;2.10;1.00;;;22.00;52.50;;;;;;5058787;28;20061;-65
2022/06/21 09:02:25;;;;;;;2.33;1.08;;;22.00;52.30;;;;;;5056548;28;20373;-64
2022/06/21 09:05:06;;;;;;;3.15;1.20;;;22.00;52.20;;;;;;5039071;28;20044;-65
2022/06/21 09:07:50;;;;;;;3.30;0.90;;;22.00;51.90;;;;;;5038509;28;20056;-62
2022/06/21 09:10:29;;;;;;;3.50;1.05;;;22.00;52.10;;;;;;5055872;28;20064;-65
2022/06/21 09:12:58;;;;;;;1.25;0.90;;;22.00;52.20;;;;;;5057596;28;20048;-64
2022/06/21 09:15:38;;;;;;;2.08;1.05;;;22.00;52.00;;;;;;5045153;28;20191;-63
2022/06/21 09:18:10;;;;;;;5.97;1.20;;;22.00;51.90;;;;;;5060331;28;20071;-65
2022/06/21 09:21:03;;;;;;;3.75;0.90;;;22.00;52.10;;;;;;5060293;28;20377;-64
2022/06/21 09:23:28;;;;;;;2.85;1.48;;;22.00;52.40;;;;;;5057313;28;20065;-64
2022/06/21 09:26:15;;;;;;;3.63;1.10;;;22.00;52.30;;;;;;5056036;28;20667;-63
2022/06/21 09:28:51;;;;;;;2.22;1.00;;;22.00;52.00;;;;;;5057364;28;20139;-62
2022/06/21 09:31:16;;;;;;;2.33;1.00;;;22.00;51.90;;;;;;5055460;28;20048;-65
2022/06/21 09:33:55;;;;;;;4.35;1.10;;;22.00;51.90;;;;;;5055943;28;20032;-65
2022/06/21 09:36:27;;;;;;;2.42;1.00;;;22.00;51.80;;;;;;5055498;28;20146;-65
2022/06/21 09:39:02;;;;;;;3.55;0.98;;;22.00;51.60;;;;;;5054742;28;20317;-65
2022/06/21 09:41:40;;;;;;;2.72;0.90;;;22.10;51.50;;;;;;5055245;28;20045;-64
2022/06/21 09:44:17;;;;;;;2.95;0.93;;;22.00;51.40;;;;;;5056375;28;20048;-65
2022/06/21 09:47:01;;;;;;;1.70;0.90;;;22.00;51.40;;;;;;5052912;28;20508;-66
2022/06/21 09:49:42;;;;;;;2.35;1.00;;;22.00;51.40;;;;;;5038251;28;20459;-64
2022/06/21 09:52:41;;;;;;;3.15;1.00;;;22.00;51.10;;;;;;5056012;28;20821;-62
2022/06/21 09:55:28;;;;;;;1.75;1.10;;;22.00;51.00;;;;;;5036507;28;20455;-64
2022/06/21 09:58:17;;;;;;;2.03;0.90;;;22.00;50.80;;;;;;5056914;28;20147;-64
2022/06/21 10:00:50;;;;;;;6.05;1.10;;;22.00;51.40;;;;;;5055719;28;20122;-63
2022/06/21 10:03:43;;;;;;;1.85;0.77;;;22.00;51.30;;;;;;5055226;28;20095;-65
2022/06/21 10:06:19;;;;;;;2.92;1.20;;;22.00;51.00;;;;;;5055958;28;20090;-66
2022/06/21 10:08:58;;;;;;;2.95;0.90;;;22.00;50.40;;;;;;5055852;28;20159;-65
2022/06/21 10:11:45;;;;;;;3.03;1.27;;;22.00;50.50;;;;;;5052870;28;20043;-62
2022/06/21 10:14:23;;;;;;;5.43;1.38;;;22.00;50.10;;;;;;5055020;28;20061;-63
2022/06/21 10:17:20;;;;;;;3.00;1.05;;;22.00;50.60;;;;;;5036105;28;20045;-64
2022/06/21 10:19:55;;;;;;;1.83;0.80;;;22.00;51.20;;;;;;5034954;28;20047;-65
2022/06/21 10:22:29;;;;;;;2.10;0.80;;;22.00;51.30;;;;;;5055319;28;20068;-65
2022/06/21 10:25:22;;;;;;;1.95;0.90;;;22.00;51.20;;;;;;5057357;28;20045;-62
2022/06/21 10:28:12;;;;;;;2.75;0.90;;;22.00;51.10;;;;;;5055618;28;20127;-64
2022/06/21 10:30:56;;;;;;;3.33;1.13;;;22.00;51.40;;;;;;5056659;28;20106;-64
2022/06/21 10:33:49;;;;;;;2.33;0.85;;;22.00;51.50;;;;;;5039107;28;20066;-64
2022/06/21 10:37:08;;;;;;;3.53;1.00;;;22.00;51.50;;;;;;5055455;28;20041;-63
2022/06/21 10:39:42;;;;;;;2.75;1.08;;;22.00;51.30;;;;;;5000016;28;20048;-64
2022/06/21 10:42:59;;;;;;;1.90;0.80;;;22.00;51.40;;;;;;5052549;28;20079;-63
2022/06/21 10:45:41;;;;;;;2.13;1.00;;;22.00;51.40;;;;;;5007649;28;20446;-65
2022/06/21 10:48:18;;;;;;;1.83;0.80;;;22.00;51.50;;;;;;5052675;28;20072;-65
2022/06/21 10:51:22;;;;;;;5.18;1.02;;;22.00;52.50;;;;;;5051655;28;20036;-66
2022/06/21 10:54:34;;;;;;;3.67;0.60;;;22.00;51.90;;;;;;5053183;28;20057;-64
2022/06/21 10:57:41;;;;;;;2.75;0.90;;;22.10;52.00;;;;;;5054024;28;20047;-66
2022/06/21 11:03:49;;;;;;;1.30;0.60;;;22.00;51.90;;;;;;5036001;28;20053;-64
2022/06/21 11:06:20;;;;;;;1.52;0.88;;;22.10;51.80;;;;;;5054653;28;20443;-65
2022/06/21 11:08:58;;;;;;;2.15;0.80;;;22.10;51.80;;;;;;5041869;28;20123;-66
2022/06/21 11:11:46;;;;;;;4.70;0.90;;;22.10;51.80;;;;;;5056185;28;20075;-66
2022/06/21 11:14:51;;;;;;;1.58;0.70;;;22.10;51.80;;;;;;5055945;28;20036;-65
2022/06/21 11:17:26;;;;;;;2.25;0.70;;;22.10;51.80;;;;;;5053592;28;20083;-65
2022/06/21 11:19:58;;;;;;;1.17;0.73;;;22.10;51.80;;;;;;5052389;28;20063;-65
2022/06/21 11:22:42;;;;;;;2.00;0.80;;;22.10;51.90;;;;;;5054551;28;20048;-63
2022/06/21 11:25:11;;;;;;;2.65;1.10;;;22.10;51.80;;;;;;5055396;28;20048;-66
2022/06/21 11:27:59;;;;;;;3.15;1.00;;;22.10;51.90;;;;;;5054098;28;20040;-65
2022/06/21 11:30:42;;;;;;;2.10;0.80;;;22.10;51.80;;;;;;5053425;28;20075;-65
2022/06/21 11:33:28;;;;;;;2.10;0.75;;;22.10;51.80;;;;;;5055276;28;20048;-65
2022/06/21 11:36:03;;;;;;;2.65;1.13;;;22.10;51.70;;;;;;5055019;28;20037;-65
2022/06/21 11:38:53;;;;;;;1.83;0.80;;;22.10;51.80;;;;;;5055873;28;20164;-64
2022/06/21 11:44:37;;;;;;;2.40;0.70;;;22.10;51.90;;;;;;5054458;28;20125;-63
2022/06/21 11:47:38;;;;;;;2.38;0.90;;;22.10;52.00;;;;;;5054591;28;20543;-64
2022/06/21 11:50:16;;;;;;;1.38;0.70;;;22.10;51.90;;;;;;5013917;28;20489;-64
2022/06/21 11:53:29;;;;;;;2.08;0.93;;;22.10;52.00;;;;;;5052835;28;20127;-65
2022/06/21 11:56:13;;;;;;;1.85;0.80;;;22.10;52.00;;;;;;5012113;28;20341;-65
2022/06/21 11:59:14;;;;;;;0.98;0.68;;;22.10;52.00;;;;;;5052770;28;20051;-64
2022/06/21 12:01:52;;;;;;;2.95;0.80;;;22.10;52.10;;;;;;5055921;28;20063;-65
2022/06/21 12:04:35;;;;;;;3.83;1.20;;;22.10;52.10;;;;;;5054435;28;20570;-64
2022/06/21 12:07:15;;;;;;;4.20;1.40;;;22.10;52.00;;;;;;5053614;28;20045;-62
2022/06/21 12:10:10;;;;;;;2.83;0.80;;;22.10;52.80;;;;;;5055847;28;20492;-66
2022/06/21 12:12:43;;;;;;;2.60;1.02;;;22.20;52.00;;;;;;5053345;28;20036;-62
2022/06/21 12:15:56;;;;;;;1.13;0.73;;;22.10;52.00;;;;;;5053557;28;20115;-64
2022/06/21 12:18:25;;;;;;;2.33;0.82;;;22.20;52.10;;;;;;5053590;28;20111;-65
2022/06/21 12:21:14;;;;;;;0.85;0.82;;;22.10;52.10;;;;;;5052545;28;20511;-65
2022/06/21 12:23:50;;;;;;;2.72;1.10;;;22.20;52.10;;;;;;5053379;28;20504;-65
2022/06/21 12:26:25;;;;;;;3.50;1.15;;;22.20;52.20;;;;;;5053847;28;20510;-66
2022/06/21 12:28:54;;;;;;;1.95;0.80;;;22.20;52.10;;;;;;5054943;28;20542;-64
2022/06/21 12:31:27;;;;;;;3.78;1.17;;;22.20;52.10;;;;;;5034176;28;20075;-65
2022/06/21 12:34:06;;;;;;;2.08;0.63;;;22.20;52.10;;;;;;5035161;28;20484;-65
2022/06/21 12:36:49;;;;;;;2.83;1.25;;;22.20;52.10;;;;;;5053191;28;20095;-65
2022/06/21 12:39:18;;;;;;;5.72;1.20;;;22.20;52.50;;;;;;5053722;28;20051;-65
2022/06/21 12:41:50;;;;;;;1.98;0.95;;;22.20;53.10;;;;;;5054361;28;20151;-65
2022/06/21 12:44:30;;;;;;;1.90;0.93;;;22.20;53.40;;;;;;5053627;28;20050;-65
2022/06/21 12:47:19;;;;;;;3.25;1.33;;;22.20;53.60;;;;;;5052737;28;20114;-65
2022/06/21 12:50:07;;;;;;;1.95;0.88;;;22.20;53.60;;;;;;5053356;28;20068;-62
2022/06/21 12:52:47;;;;;;;3.75;1.00;;;22.20;54.40;;;;;;5053029;28;20044;-65
2022/06/21 12:55:33;;;;;;;4.20;1.48;;;22.30;53.70;;;;;;5051691;28;20040;-65
2022/06/21 12:58:20;;;;;;;6.07;1.13;;;22.30;53.70;;;;;;5055169;28;20227;-65
2022/06/21 13:00:55;;;;;;;2.47;0.98;;;22.30;53.80;;;;;;5054863;28;20160;-65
2022/06/21 13:03:45;;;;;;;3.25;1.13;;;22.30;53.80;;;;;;5056027;28;20481;-65
2022/06/21 13:06:14;;;;;;;2.17;0.80;;;22.30;53.70;;;;;;5055951;28;20469;-65
2022/06/21 13:09:16;;;;;;;2.47;1.00;;;22.30;53.50;;;;;;5054959;28;20438;-65
2022/06/21 13:12:36;;;;;;;3.30;0.90;;;22.30;53.20;;;;;;5024593;28;20076;-65
2022/06/21 13:15:07;;;;;;;2.95;1.10;;;22.30;53.00;;;;;;4963935;28;20048;-64
2022/06/21 13:18:07;;;;;;;6.22;1.13;;;22.30;53.10;;;;;;5053368;28;20079;-66
2022/06/21 13:21:00;;;;;;;2.92;1.00;;;22.30;53.00;;;;;;5055633;28;20040;-61
2022/06/21 13:23:51;;;;;;;2.88;0.80;;;22.30;52.90;;;;;;5057833;28;20136;-65
2022/06/21 13:26:53;;;;;;;;;;;22.30;52.80;;;;;;5058693;28;20047;-63
2022/06/21 13:29:31;;;;;;;2.83;0.95;;;22.30;52.70;;;;;;5010345;28;20020;-65
2022/06/21 13:32:02;;;;;;;1.65;0.80;;;22.30;52.80;;;;;;5050459;28;20052;-64
2022/06/21 13:34:32;;;;;;;2.20;0.80;;;22.30;52.70;;;;;;5056782;28;20040;-65
2022/06/21 13:37:22;;;;;;;3.63;1.25;;;22.30;52.70;;;;;;5053609;28;20126;-62
2022/06/21 13:40:19;;;;;;;2.78;0.90;;;22.30;52.70;;;;;;5046813;28;20513;-65
2022/06/21 13:43:11;;;;;;;1.23;0.60;;;22.40;52.70;;;;;;5037450;28;20044;-63
2022/06/21 13:45:53;;;;;;;2.85;0.60;;;22.30;52.70;;;;;;5038367;28;20047;-65
2022/06/21 13:48:43;;;;;;;1.30;0.90;;;22.40;52.60;;;;;;5056346;28;20083;-65
2022/06/21 13:51:23;;;;;;;3.50;1.02;;;22.40;52.60;;;;;;5045655;28;20392;-63
2022/06/21 13:53:57;;;;;;;3.38;0.82;;;22.40;52.60;;;;;;5055359;28;20465;-65
2022/06/21 13:56:28;;;;;;;2.80;0.80;;;22.40;52.70;;;;;;5056899;28;20047;-65
2022/06/21 13:59:01;;;;;;;1.73;0.80;;;22.40;52.60;;;;;;5054909;28;20098;-65
2022/06/21 14:01:37;;;;;;;2.30;0.60;;;22.40;52.60;;;;;;5054723;28;20033;-65
2022/06/21 14:04:14;;;;;;;3.28;0.93;;;22.40;52.50;;;;;;5054017;28;20043;-65
2022/06/21 14:06:57;;;;;;;2.05;0.98;;;22.50;51.80;;;;;;5054266;28;20032;-66